createdAt,value
2022-12-19T00:01:37.783Z,31.27
2022-12-19T00:04:09.766Z,32.03
2022-12-19T00:06:43.366Z,29.77
2022-12-19T00:09:12.984Z,38.60
2022-12-19T00:11:41.142Z,60.07
2022-12-19T00:14:11.516Z,35.50
2022-12-19T00:16:38.630Z,34.40
2022-12-19T00:19:05.805Z,29.63
2022-12-19T00:21:35.430Z,25.67
2022-12-19T00:24:08.121Z,31.50
2022-12-19T00:26:48.765Z,34.20
2022-12-19T00:29:16.295Z,27.10
2022-12-19T00:31:43.529Z,29.00
2022-12-19T00:34:10.683Z,33.57
2022-12-19T00:36:40.124Z,34.23
2022-12-19T00:39:08.284Z,30.87
2022-12-19T00:41:41.780Z,29.47
2022-12-19T00:44:17.564Z,28.87
2022-12-19T00:46:52.289Z,29.83
2022-12-19T00:49:21.074Z,25.20
2022-12-19T00:51:48.090Z,41.37
2022-12-19T00:54:15.388Z,24.83
2022-12-19T00:56:42.848Z,31.90
2022-12-19T00:59:10.675Z,42.27
2022-12-19T01:01:41.520Z,38.00
2022-12-19T01:04:31.094Z,27.57
2022-12-19T01:07:01.639Z,27.30
2022-12-19T01:09:34.144Z,31.90
2022-12-19T01:12:20.984Z,27.90
2022-12-19T01:15:04.061Z,28.77
2022-12-19T01:17:43.519Z,29.03
2022-12-19T01:20:18.190Z,38.17
2022-12-19T01:22:59.805Z,33.03
2022-12-19T01:25:28.486Z,29.40
2022-12-19T01:27:56.682Z,38.97
2022-12-19T01:30:24.126Z,35.33
2022-12-19T01:32:51.632Z,37.50
2022-12-19T01:35:22.021Z,35.10
2022-12-19T01:37:51.360Z,33.23
2022-12-19T01:40:19.976Z,34.83
2022-12-19T01:42:48.816Z,32.20
2022-12-19T01:45:16.941Z,28.63
2022-12-19T01:48:16.222Z,33.83
2022-12-19T01:51:05.942Z,40.00
2022-12-19T01:53:49.317Z,39.80
2022-12-19T01:56:22.269Z,34.83
2022-12-19T01:58:51.036Z,35.27
2022-12-19T02:01:41.448Z,35.00
2022-12-19T02:04:20.446Z,30.17
2022-12-19T02:06:48.749Z,40.00
2022-12-19T02:09:16.234Z,39.30
2022-12-19T02:11:43.531Z,38.23
2022-12-19T02:14:10.813Z,32.60
2022-12-19T02:16:59.888Z,31.50
2022-12-19T02:19:59.198Z,42.13
2022-12-19T02:22:54.730Z,34.20
2022-12-19T02:25:56.868Z,34.47
2022-12-19T02:28:59.173Z,46.57
2022-12-19T02:31:49.636Z,42.03
2022-12-19T02:34:38.852Z,34.17
2022-12-19T02:37:21.492Z,60.37
2022-12-19T02:40:06.927Z,73.50
2022-12-19T02:42:44.188Z,69.40
2022-12-19T02:45:15.619Z,66.73
2022-12-19T02:48:03.301Z,65.80
2022-12-19T02:50:43.081Z,44.33
2022-12-19T02:53:15.274Z,55.53
2022-12-19T02:55:51.018Z,59.60
2022-12-19T02:58:28.266Z,51.37
2022-12-19T03:01:24.081Z,86.53
2022-12-19T03:04:23.274Z,60.33
2022-12-19T03:07:22.880Z,54.03
2022-12-19T03:10:19.965Z,38.33
2022-12-19T03:13:00.903Z,78.60
2022-12-19T03:15:28.776Z,41.33
2022-12-19T03:17:59.731Z,70.27
2022-12-19T03:20:29.216Z,28.03
2022-12-19T03:22:56.585Z,36.70
2022-12-19T03:25:24.412Z,38.20
2022-12-19T03:27:53.755Z,37.53
2022-12-19T03:30:21.107Z,32.60
2022-12-19T03:32:49.229Z,26.97
2022-12-19T03:35:28.195Z,35.50
2022-12-19T03:37:58.791Z,35.93
2022-12-19T03:40:27.304Z,38.00
2022-12-19T03:43:09.068Z,38.37
2022-12-19T03:46:20.138Z,40.67
2022-12-19T03:48:50.854Z,38.20
2022-12-19T03:51:59.098Z,64.20
2022-12-19T03:54:33.248Z,40.80
2022-12-19T03:57:15.113Z,42.00
2022-12-19T04:00:03.984Z,33.80
2022-12-19T04:02:44.642Z,30.17
2022-12-19T04:05:18.025Z,34.80
2022-12-19T04:07:46.254Z,33.93
2022-12-19T04:10:19.556Z,46.70
2022-12-19T04:13:14.156Z,41.87
2022-12-19T04:16:17.151Z,45.07
2022-12-19T04:18:53.287Z,39.50
2022-12-19T04:21:31.647Z,48.57
2022-12-19T04:24:09.619Z,40.13
2022-12-19T04:26:39.198Z,43.40
2022-12-19T04:29:08.112Z,45.77
2022-12-19T04:31:36.503Z,35.50
2022-12-19T04:34:03.544Z,33.73
2022-12-19T04:36:30.600Z,40.20
2022-12-19T04:38:58.072Z,48.93
2022-12-19T04:41:25.053Z,46.17
2022-12-19T04:43:52.040Z,47.20
2022-12-19T04:46:19.092Z,49.47
2022-12-19T04:48:46.108Z,36.57
2022-12-19T04:51:13.284Z,39.70
2022-12-19T04:53:40.718Z,33.80
2022-12-19T04:56:08.048Z,53.17
2022-12-19T04:58:35.042Z,34.30
2022-12-19T05:01:07.904Z,36.67
2022-12-19T05:03:36.065Z,40.60
2022-12-19T05:06:11.816Z,43.80
2022-12-19T05:08:41.985Z,36.67
2022-12-19T05:11:15.816Z,35.17
2022-12-19T05:13:46.068Z,30.80
2022-12-19T05:16:13.466Z,39.90
2022-12-19T05:18:41.010Z,36.27
2022-12-19T05:21:08.952Z,40.27
2022-12-19T05:23:36.054Z,39.80
2022-12-19T05:26:04.657Z,34.83
2022-12-19T05:28:32.681Z,32.27
2022-12-19T05:31:20.479Z,66.73
2022-12-19T05:33:48.320Z,37.20
2022-12-19T05:36:17.444Z,47.07
2022-12-19T05:38:44.772Z,44.50
2022-12-19T05:41:18.815Z,41.20
2022-12-19T05:43:50.557Z,32.90
2022-12-19T05:46:17.666Z,40.63
2022-12-19T05:48:44.668Z,35.03
2022-12-19T05:51:11.870Z,35.20
2022-12-19T05:53:40.375Z,45.63
2022-12-19T05:56:14.300Z,39.80
2022-12-19T05:58:42.184Z,39.00
2022-12-19T06:01:22.865Z,43.00
2022-12-19T06:03:50.378Z,37.63
2022-12-19T06:06:21.464Z,41.43
2022-12-19T06:08:48.536Z,39.50
2022-12-19T06:11:15.697Z,38.40
2022-12-19T06:13:42.945Z,37.63
2022-12-19T06:16:16.685Z,34.77
2022-12-19T06:18:45.699Z,41.37
2022-12-19T06:21:20.085Z,63.80
2022-12-19T06:23:48.001Z,47.70
2022-12-19T06:26:19.779Z,49.17
2022-12-19T06:28:51.851Z,80.23
2022-12-19T06:31:21.669Z,73.73
2022-12-19T06:33:49.418Z,73.23
2022-12-19T06:36:22.888Z,63.47
2022-12-19T06:38:51.100Z,64.57
2022-12-19T06:41:37.672Z,67.23
2022-12-19T06:44:09.032Z,62.97
2022-12-19T06:46:37.816Z,56.07
2022-12-19T06:49:05.757Z,72.30
2022-12-19T06:51:33.218Z,70.00
2022-12-19T06:54:00.555Z,62.93
2022-12-19T06:56:28.150Z,65.77
2022-12-19T06:58:55.234Z,61.83
2022-12-19T07:01:37.767Z,59.47
2022-12-19T07:04:05.547Z,61.23
2022-12-19T07:06:32.520Z,57.17
2022-12-19T07:09:00.109Z,56.27
2022-12-19T07:11:27.119Z,61.50
2022-12-19T07:13:54.071Z,59.63
2022-12-19T07:16:21.049Z,59.50
2022-12-19T07:18:49.461Z,52.50
2022-12-19T07:21:16.938Z,54.73
2022-12-19T07:23:44.797Z,56.60
2022-12-19T07:26:12.217Z,56.90
2022-12-19T07:28:39.356Z,62.07
2022-12-19T07:31:06.408Z,51.13
2022-12-19T07:33:33.784Z,53.80
2022-12-19T07:36:00.762Z,47.00
2022-12-19T07:38:27.732Z,50.93
2022-12-19T07:40:54.682Z,55.80
2022-12-19T07:43:21.648Z,63.77
2022-12-19T07:45:55.574Z,47.17
2022-12-19T07:48:23.140Z,50.73
2022-12-19T07:50:50.122Z,56.03
2022-12-19T07:53:17.459Z,49.97
2022-12-19T07:55:44.793Z,45.73
2022-12-19T07:58:11.806Z,61.17
2022-12-19T08:00:38.832Z,61.30
2022-12-19T08:03:05.839Z,61.43
2022-12-19T08:05:35.257Z,64.20
2022-12-19T08:08:02.240Z,53.63
2022-12-19T08:10:29.195Z,49.70
2022-12-19T08:12:56.165Z,53.67
2022-12-19T08:15:23.200Z,60.17
2022-12-19T08:17:50.201Z,49.03
2022-12-19T08:20:17.352Z,53.47
2022-12-19T08:22:44.787Z,52.10
2022-12-19T08:25:12.487Z,46.80
2022-12-19T08:27:39.813Z,54.50
2022-12-19T08:30:07.775Z,49.60
2022-12-19T08:32:36.109Z,52.13
2022-12-19T08:35:03.167Z,50.70
2022-12-19T08:37:30.194Z,51.87
2022-12-19T08:39:57.212Z,48.53
2022-12-19T08:42:24.193Z,48.13
2022-12-19T08:44:51.256Z,52.93
2022-12-19T08:47:18.305Z,46.90
2022-12-19T08:49:45.247Z,54.00
2022-12-19T08:52:12.204Z,50.17
2022-12-19T08:54:39.347Z,55.73
2022-12-19T08:57:06.522Z,53.17
2022-12-19T08:59:33.472Z,46.37
2022-12-19T09:02:01.685Z,49.30
2022-12-19T09:05:58.653Z,42.13
2022-12-19T09:07:17.068Z,58.57
2022-12-19T09:09:45.101Z,54.80
2022-12-19T09:12:14.877Z,55.33
2022-12-19T09:14:42.168Z,50.73
2022-12-19T09:17:09.292Z,47.17
2022-12-19T09:19:36.362Z,48.20
2022-12-19T09:22:03.375Z,47.83
2022-12-19T09:24:30.353Z,46.00
2022-12-19T09:26:57.321Z,51.57
2022-12-19T09:29:25.299Z,47.37
2022-12-19T09:31:56.668Z,48.73
2022-12-19T09:34:38.116Z,52.03
2022-12-19T09:37:08.277Z,53.57
2022-12-19T09:39:36.367Z,50.90
2022-12-19T09:42:24.714Z,52.30
2022-12-19T09:45:32.130Z,45.50
2022-12-19T09:48:01.578Z,50.93
2022-12-19T09:50:31.560Z,47.90
2022-12-19T09:53:06.387Z,44.60
2022-12-19T09:55:39.609Z,47.57
2022-12-19T09:58:31.568Z,52.23
2022-12-19T10:01:03.063Z,50.40
2022-12-19T10:03:40.462Z,54.13
2022-12-19T10:07:15.826Z,43.97
2022-12-19T10:10:03.129Z,48.67
2022-12-19T10:12:42.502Z,41.53
2022-12-19T10:15:35.892Z,45.40
2022-12-19T10:18:54.429Z,44.70
2022-12-19T10:22:18.247Z,46.37
2022-12-19T10:25:12.098Z,42.23
2022-12-19T10:27:58.736Z,51.93
2022-12-19T10:30:31.839Z,50.37
2022-12-19T10:33:25.456Z,44.13
2022-12-19T10:36:02.078Z,40.53
2022-12-19T10:39:32.192Z,46.50
2022-12-19T10:42:24.995Z,47.37
2022-12-19T10:44:54.202Z,47.73
2022-12-19T10:47:21.271Z,48.17
2022-12-19T10:49:49.374Z,57.43
2022-12-19T10:52:46.628Z,55.87
2022-12-19T10:55:45.308Z,50.07
2022-12-19T10:58:25.939Z,48.03
2022-12-19T11:01:40.074Z,54.20
2022-12-19T11:04:31.901Z,40.27
2022-12-19T11:07:18.995Z,36.83
2022-12-19T11:10:20.552Z,48.97
2022-12-19T11:15:49.651Z,40.43
2022-12-19T11:20:28.075Z,40.00
2022-12-19T11:26:26.003Z,39.40
2022-12-19T11:29:19.746Z,41.23
2022-12-19T11:29:37.681Z,40.60
2022-12-19T11:30:49.027Z,41.57
2022-12-19T11:33:18.654Z,51.07
2022-12-19T11:35:56.642Z,45.23
2022-12-19T11:38:45.953Z,34.83
2022-12-19T11:41:29.583Z,38.17
2022-12-19T11:44:09.852Z,32.47
2022-12-19T11:46:48.175Z,34.07
2022-12-19T11:49:35.083Z,36.80
2022-12-19T11:53:02.987Z,37.87
2022-12-19T11:55:28.832Z,40.47
2022-12-19T11:57:55.848Z,41.53
2022-12-19T12:00:24.919Z,42.80
2022-12-19T12:03:18.029Z,40.50
2022-12-19T12:05:49.768Z,41.87
2022-12-19T12:10:40.092Z,35.60
2022-12-19T12:19:15.455Z,47.00
2022-12-19T12:26:22.367Z,48.93
2022-12-19T12:31:09.709Z,48.83
2022-12-19T12:31:20.141Z,56.40
2022-12-19T12:31:40.356Z,55.53
2022-12-19T12:31:50.064Z,45.17
2022-12-19T12:35:07.248Z,44.40
2022-12-19T12:35:56.944Z,55.10
2022-12-19T12:38:22.053Z,51.63
2022-12-19T12:41:47.613Z,50.53
2022-12-19T12:44:32.669Z,54.30
2022-12-19T12:47:12.471Z,49.60
2022-12-19T12:50:01.131Z,53.00
2022-12-19T12:52:36.226Z,51.37
2022-12-19T12:55:06.707Z,43.90
2022-12-19T12:57:37.797Z,47.00
2022-12-19T13:00:28.545Z,52.27
2022-12-19T13:03:14.294Z,43.23
2022-12-19T13:05:47.258Z,49.97
2022-12-19T13:08:38.863Z,52.77
2022-12-19T13:11:44.909Z,53.60
2022-12-19T13:14:34.707Z,48.53
2022-12-19T13:17:07.178Z,45.50
2022-12-19T13:19:55.316Z,46.37
2022-12-19T13:22:31.995Z,52.60
2022-12-19T13:25:00.708Z,53.33
2022-12-19T13:27:38.576Z,53.67
2022-12-19T13:30:12.628Z,56.07
2022-12-19T13:32:39.637Z,54.77
2022-12-19T13:36:15.827Z,50.20
2022-12-19T13:40:02.200Z,55.77
2022-12-19T13:41:25.216Z,55.07
2022-12-19T13:43:58.892Z,50.80
2022-12-19T13:46:44.701Z,44.23
2022-12-19T13:49:25.114Z,47.93
2022-12-19T13:51:57.340Z,41.87
2022-12-19T13:54:32.255Z,38.27
2022-12-19T13:57:03.872Z,46.10
2022-12-19T13:59:40.063Z,41.97
2022-12-19T14:02:18.276Z,51.77
2022-12-19T14:04:46.083Z,57.77
2022-12-19T14:07:38.540Z,50.23
2022-12-19T14:11:30.714Z,45.43
2022-12-19T14:14:00.574Z,40.97
2022-12-19T14:16:40.196Z,53.60
2022-12-19T14:19:24.595Z,46.23
2022-12-19T14:22:05.377Z,45.67
2022-12-19T14:24:40.713Z,44.70
2022-12-19T14:28:25.899Z,47.43
2022-12-19T14:30:31.046Z,50.57
2022-12-19T14:33:46.857Z,48.47
2022-12-19T14:36:12.519Z,49.70
2022-12-19T14:39:24.398Z,46.50
2022-12-19T14:41:46.702Z,53.97
2022-12-19T14:52:35.692Z,42.60
2022-12-19T14:54:07.889Z,45.90
2022-12-19T14:54:13.815Z,48.30
2022-12-19T14:54:29.754Z,47.47
2022-12-19T14:59:03.253Z,40.27
2022-12-19T15:01:34.150Z,45.77
2022-12-19T15:04:50.972Z,58.80
2022-12-19T15:07:12.127Z,64.20
2022-12-19T15:11:08.135Z,48.47
2022-12-19T15:14:48.491Z,45.33
2022-12-19T15:16:05.854Z,42.57
2022-12-19T15:18:32.905Z,41.57
2022-12-19T15:21:10.925Z,39.63
2022-12-19T15:23:38.046Z,47.37
2022-12-19T15:26:11.875Z,47.40
2022-12-19T15:28:51.101Z,46.00
2022-12-19T15:31:38.961Z,50.67
2022-12-19T15:34:44.316Z,43.73
2022-12-19T15:37:16.125Z,49.83
2022-12-19T15:39:44.698Z,53.87
2022-12-19T15:42:23.153Z,45.67
2022-12-19T15:44:52.374Z,56.00
2022-12-19T15:47:32.047Z,45.23
2022-12-19T15:50:02.915Z,60.90
2022-12-19T15:52:30.749Z,47.93
2022-12-19T15:54:57.798Z,48.53
2022-12-19T15:57:39.110Z,49.80
2022-12-19T16:00:16.932Z,54.40
2022-12-19T16:05:31.558Z,45.77
2022-12-19T16:07:58.978Z,46.00
2022-12-19T16:10:26.580Z,54.67
2022-12-19T16:12:58.419Z,55.37
2022-12-19T16:15:34.251Z,57.97
2022-12-19T16:18:03.328Z,48.97
2022-12-19T16:20:37.822Z,49.07
2022-12-19T16:23:05.052Z,53.40
2022-12-19T16:25:40.946Z,50.53
2022-12-19T16:28:18.575Z,57.33
2022-12-19T16:30:45.929Z,51.90
2022-12-19T16:33:24.941Z,55.13
2022-12-19T16:36:04.173Z,54.80
2022-12-19T16:38:32.189Z,51.37
2022-12-19T16:40:59.236Z,52.57
2022-12-19T16:43:30.902Z,50.87
2022-12-19T16:46:01.491Z,52.50
2022-12-19T16:48:30.333Z,52.30
2022-12-19T16:50:58.937Z,51.53
2022-12-19T16:53:26.132Z,49.67
2022-12-19T16:55:56.149Z,63.03
2022-12-19T16:58:27.799Z,57.83
2022-12-19T17:00:55.672Z,59.80
2022-12-19T17:03:40.983Z,49.40
2022-12-19T17:06:20.639Z,57.97
2022-12-19T17:08:48.793Z,50.27
2022-12-19T17:11:26.260Z,59.47
2022-12-19T17:14:01.394Z,49.70
2022-12-19T17:16:31.045Z,48.40
2022-12-19T17:18:59.322Z,64.13
2022-12-19T17:21:26.368Z,55.20
2022-12-19T17:23:53.344Z,57.30
2022-12-19T17:26:20.382Z,58.50
2022-12-19T17:28:48.361Z,67.27
2022-12-19T17:31:28.755Z,53.13
2022-12-19T17:33:58.188Z,48.03
2022-12-19T17:36:36.948Z,49.67
2022-12-19T17:39:26.996Z,51.77
2022-12-19T17:41:59.295Z,51.73
2022-12-19T17:44:26.362Z,51.97
2022-12-19T17:46:53.441Z,55.67
2022-12-19T17:49:33.552Z,54.33
2022-12-19T17:52:00.619Z,47.50
2022-12-19T17:54:27.956Z,50.40
2022-12-19T17:56:55.710Z,53.67
2022-12-19T17:59:22.712Z,47.97
2022-12-19T18:01:49.972Z,49.90
2022-12-19T18:04:19.934Z,55.77
2022-12-19T18:06:47.679Z,48.50
2022-12-19T18:09:25.147Z,54.33
2022-12-19T18:11:53.275Z,56.50
2022-12-19T18:14:20.571Z,47.67
2022-12-19T18:16:53.537Z,59.97
2022-12-19T18:19:24.664Z,53.50
2022-12-19T18:21:51.979Z,48.13
2022-12-19T18:24:18.958Z,55.67
2022-12-19T18:26:46.038Z,54.43
2022-12-19T18:29:13.676Z,68.33
2022-12-19T18:31:48.198Z,51.13
2022-12-19T18:34:25.173Z,50.03
2022-12-19T18:36:53.138Z,50.73
2022-12-19T18:39:28.399Z,51.17
2022-12-19T18:41:55.830Z,59.20
2022-12-19T18:44:23.401Z,62.37
2022-12-19T18:46:51.930Z,54.73
2022-12-19T18:49:19.610Z,68.97
2022-12-19T18:51:46.768Z,44.73
2022-12-19T18:54:22.068Z,50.23
2022-12-19T18:56:49.169Z,50.30
2022-12-19T18:59:16.261Z,56.57
2022-12-19T19:01:46.763Z,56.43
2022-12-19T19:04:17.891Z,55.00
2022-12-19T19:06:51.602Z,52.47
2022-12-19T19:09:21.307Z,72.40
2022-12-19T19:12:12.055Z,47.87
2022-12-19T19:14:39.415Z,50.27
2022-12-19T19:17:17.928Z,53.57
2022-12-19T19:19:44.972Z,54.70
2022-12-19T19:22:11.964Z,52.97
2022-12-19T19:24:38.977Z,44.13
2022-12-19T19:27:06.034Z,56.57
2022-12-19T19:29:33.022Z,46.30
2022-12-19T19:32:00.219Z,49.73
2022-12-19T19:34:34.399Z,52.93
2022-12-19T19:37:04.395Z,53.33
2022-12-19T19:39:34.314Z,48.83
2022-12-19T19:42:01.980Z,45.33
2022-12-19T19:44:29.953Z,56.60
2022-12-19T19:46:57.236Z,52.10
2022-12-19T19:49:24.810Z,53.40
2022-12-19T19:51:56.818Z,49.47
2022-12-19T19:54:27.493Z,67.23
2022-12-19T19:56:54.871Z,58.90
2022-12-19T19:59:22.144Z,60.40
2022-12-19T20:01:54.144Z,64.50
2022-12-19T20:04:21.587Z,52.80
2022-12-19T20:06:48.674Z,53.57
2022-12-19T20:09:15.699Z,54.93
2022-12-19T20:11:42.772Z,70.10
2022-12-19T20:14:09.760Z,53.07
2022-12-19T20:16:36.830Z,52.67
2022-12-19T20:19:03.930Z,47.20
2022-12-19T20:21:31.227Z,55.83
2022-12-19T20:23:58.248Z,52.50
2022-12-19T20:26:25.385Z,53.13
2022-12-19T20:28:52.473Z,59.87
2022-12-19T20:31:23.462Z,54.83
2022-12-19T20:33:53.216Z,54.07
2022-12-19T20:36:20.911Z,46.20
2022-12-19T20:38:48.510Z,56.63
2022-12-19T20:41:16.698Z,52.33
2022-12-19T20:43:44.887Z,57.63
2022-12-19T20:46:16.394Z,51.80
2022-12-19T20:48:45.001Z,48.10
2022-12-19T20:51:14.024Z,49.77
2022-12-19T20:53:41.981Z,55.13
2022-12-19T20:56:14.098Z,55.50
2022-12-19T20:58:41.581Z,57.47
2022-12-19T21:01:16.448Z,51.63
2022-12-19T21:03:45.286Z,56.40
2022-12-19T21:06:15.588Z,52.47
2022-12-19T21:08:42.969Z,61.07
2022-12-19T21:11:11.635Z,60.43
2022-12-19T21:13:41.024Z,53.80
2022-12-19T21:16:11.961Z,50.67
2022-12-19T21:18:41.313Z,47.57
2022-12-19T21:21:22.962Z,55.27
2022-12-19T21:23:51.213Z,46.90
2022-12-19T21:26:19.268Z,50.67
2022-12-19T21:28:46.297Z,44.57
2022-12-19T21:31:26.854Z,51.03
2022-12-19T21:33:56.369Z,44.63
2022-12-19T21:36:25.303Z,49.93
2022-12-19T21:38:55.805Z,42.77
2022-12-19T21:41:23.288Z,55.87
2022-12-19T21:43:53.829Z,47.73
2022-12-19T21:46:27.498Z,54.80
2022-12-19T21:48:56.826Z,50.70
2022-12-19T21:51:28.589Z,48.80
2022-12-19T21:54:00.488Z,48.40
2022-12-19T21:56:31.614Z,53.83
2022-12-19T21:59:10.674Z,42.00
2022-12-19T22:01:37.967Z,54.87
2022-12-19T22:04:10.775Z,52.50
2022-12-19T22:06:39.054Z,50.17
2022-12-19T22:09:13.073Z,48.50
2022-12-19T22:11:40.442Z,46.13
2022-12-19T22:14:08.490Z,38.57
2022-12-19T22:16:35.760Z,50.67
2022-12-19T22:19:03.521Z,45.30
2022-12-19T22:21:31.332Z,54.03
2022-12-19T22:24:00.679Z,46.30
2022-12-19T22:26:29.789Z,48.77
2022-12-19T22:28:58.280Z,48.37
2022-12-19T22:31:31.633Z,43.63
2022-12-19T22:34:07.827Z,54.53
2022-12-19T22:36:37.984Z,48.10
2022-12-19T22:39:08.528Z,53.83
2022-12-19T22:41:37.518Z,50.83
2022-12-19T22:44:05.548Z,46.53
2022-12-19T22:46:37.472Z,55.53
2022-12-19T22:49:07.426Z,47.77
2022-12-19T22:51:36.157Z,53.13
2022-12-19T22:54:04.620Z,42.37
2022-12-19T22:56:33.636Z,47.63
2022-12-19T22:59:05.348Z,64.70
2022-12-19T23:01:43.730Z,59.53
2022-12-19T23:04:14.004Z,65.47
2022-12-19T23:06:41.706Z,61.57
2022-12-19T23:09:13.113Z,59.77
2022-12-19T23:11:42.728Z,64.90
2022-12-19T23:14:14.851Z,54.23
2022-12-19T23:16:43.408Z,47.73
2022-12-19T23:19:15.686Z,49.90
2022-12-19T23:21:42.756Z,46.13
2022-12-19T23:24:09.730Z,49.47
2022-12-19T23:26:38.378Z,46.57
2022-12-19T23:29:09.509Z,51.77
2022-12-19T23:31:39.262Z,51.43
2022-12-19T23:34:06.342Z,50.83
2022-12-19T23:39:20.398Z,46.03
2022-12-19T23:41:47.386Z,57.53
2022-12-19T23:44:15.364Z,46.77
2022-12-19T23:46:42.379Z,45.23
2022-12-19T23:49:09.457Z,42.63
2022-12-19T23:51:36.767Z,52.00
2022-12-19T23:54:03.938Z,48.60
2022-12-19T23:56:32.553Z,50.10
2022-12-19T23:58:59.997Z,53.63
